sensor_id;sensor_type;location;lat;lon;timestamp;P1;durP1;ratioP1;P2;durP2;ratioP2
72728;SDS011;60843;52.062;4.508;2022-12-18T00:00:42;49.83;;;14.40;;
72728;SDS011;60843;52.062;4.508;2022-12-18T00:03:08;46.45;;;12.98;;
72728;SDS011;60843;52.062;4.508;2022-12-18T00:05:34;49.72;;;15.57;;
72728;SDS011;60843;52.062;4.508;2022-12-18T00:07:59;40.83;;;13.65;;
72728;SDS011;60843;52.062;4.508;2022-12-18T00:10:25;46.77;;;14.03;;
72728;SDS011;60843;52.062;4.508;2022-12-18T00:12:50;44.83;;;11.20;;
72728;SDS011;60843;52.062;4.508;2022-12-18T00:15:15;54.23;;;14.40;;
72728;SDS011;60843;52.062;4.508;2022-12-18T00:17:41;48.83;;;14.95;;
72728;SDS011;60843;52.062;4.508;2022-12-18T00:20:06;38.20;;;12.87;;
72728;SDS011;60843;52.062;4.508;2022-12-18T00:22:32;46.72;;;14.40;;
72728;SDS011;60843;52.062;4.508;2022-12-18T00:24:57;56.23;;;15.47;;
72728;SDS011;60843;52.062;4.508;2022-12-18T00:27:23;56.78;;;15.35;;
72728;SDS011;60843;52.062;4.508;2022-12-18T00:29:48;45.77;;;13.17;;
72728;SDS011;60843;52.062;4.508;2022-12-18T00:32:14;40.17;;;12.23;;
72728;SDS011;60843;52.062;4.508;2022-12-18T00:34:39;49.40;;;13.65;;
72728;SDS011;60843;52.062;4.508;2022-12-18T00:37:04;54.53;;;15.87;;
72728;SDS011;60843;52.062;4.508;2022-12-18T00:39:30;39.50;;;12.53;;
72728;SDS011;60843;52.062;4.508;2022-12-18T00:41:55;50.38;;;14.57;;
72728;SDS011;60843;52.062;4.508;2022-12-18T00:44:39;44.92;;;13.23;;
72728;SDS011;60843;52.062;4.508;2022-12-18T00:47:04;44.37;;;13.10;;
72728;SDS011;60843;52.062;4.508;2022-12-18T00:49:29;62.03;;;14.67;;
72728;SDS011;60843;52.062;4.508;2022-12-18T00:51:55;55.43;;;14.07;;
72728;SDS011;60843;52.062;4.508;2022-12-18T00:54:20;58.83;;;13.60;;
72728;SDS011;60843;52.062;4.508;2022-12-18T00:56:46;57.53;;;14.27;;
72728;SDS011;60843;52.062;4.508;2022-12-18T00:59:11;61.67;;;16.25;;
72728;SDS011;60843;52.062;4.508;2022-12-18T01:01:36;58.20;;;15.15;;
72728;SDS011;60843;52.062;4.508;2022-12-18T01:04:02;57.38;;;16.77;;
72728;SDS011;60843;52.062;4.508;2022-12-18T01:06:28;58.92;;;14.38;;
72728;SDS011;60843;52.062;4.508;2022-12-18T01:08:54;53.10;;;14.95;;
72728;SDS011;60843;52.062;4.508;2022-12-18T01:11:20;60.15;;;15.45;;
72728;SDS011;60843;52.062;4.508;2022-12-18T01:13:46;61.50;;;16.70;;
72728;SDS011;60843;52.062;4.508;2022-12-18T01:16:15;56.57;;;15.23;;
72728;SDS011;60843;52.062;4.508;2022-12-18T01:18:41;49.33;;;13.25;;
72728;SDS011;60843;52.062;4.508;2022-12-18T01:21:07;61.38;;;16.95;;
72728;SDS011;60843;52.062;4.508;2022-12-18T01:23:34;63.78;;;14.98;;
72728;SDS011;60843;52.062;4.508;2022-12-18T01:26:04;36.22;;;9.90;;
72728;SDS011;60843;52.062;4.508;2022-12-18T01:28:33;42.90;;;13.45;;
72728;SDS011;60843;52.062;4.508;2022-12-18T01:31:08;39.47;;;11.63;;
72728;SDS011;60843;52.062;4.508;2022-12-18T01:33:44;46.38;;;12.65;;
72728;SDS011;60843;52.062;4.508;2022-12-18T01:38:45;65.97;;;14.80;;
72728;SDS011;60843;52.062;4.508;2022-12-18T01:41:11;52.72;;;13.52;;
72728;SDS011;60843;52.062;4.508;2022-12-18T01:43:42;50.88;;;13.23;;
72728;SDS011;60843;52.062;4.508;2022-12-18T01:46:10;71.32;;;14.32;;
72728;SDS011;60843;52.062;4.508;2022-12-18T01:48:37;56.65;;;13.18;;
72728;SDS011;60843;52.062;4.508;2022-12-18T01:51:04;56.58;;;13.00;;
72728;SDS011;60843;52.062;4.508;2022-12-18T01:53:32;49.38;;;14.27;;
72728;SDS011;60843;52.062;4.508;2022-12-18T01:55:57;35.08;;;10.98;;
72728;SDS011;60843;52.062;4.508;2022-12-18T01:58:48;37.40;;;9.88;;
72728;SDS011;60843;52.062;4.508;2022-12-18T02:01:11;44.33;;;12.02;;
72728;SDS011;60843;52.062;4.508;2022-12-18T02:03:37;58.47;;;14.68;;
72728;SDS011;60843;52.062;4.508;2022-12-18T02:26:58;31.35;;;8.68;;
72728;SDS011;60843;52.062;4.508;2022-12-18T02:29:27;35.78;;;9.63;;
72728;SDS011;60843;52.062;4.508;2022-12-18T02:31:57;49.10;;;13.82;;
72728;SDS011;60843;52.062;4.508;2022-12-18T02:34:30;29.05;;;7.50;;
72728;SDS011;60843;52.062;4.508;2022-12-18T02:36:57;45.92;;;11.68;;
72728;SDS011;60843;52.062;4.508;2022-12-18T02:39:23;35.97;;;9.52;;
72728;SDS011;60843;52.062;4.508;2022-12-18T02:41:50;37.75;;;11.63;;
72728;SDS011;60843;52.062;4.508;2022-12-18T02:44:15;50.25;;;12.05;;
72728;SDS011;60843;52.062;4.508;2022-12-18T02:46:42;43.00;;;11.53;;
72728;SDS011;60843;52.062;4.508;2022-12-18T02:52:01;39.15;;;11.02;;
72728;SDS011;60843;52.062;4.508;2022-12-18T02:54:38;35.50;;;9.07;;
72728;SDS011;60843;52.062;4.508;2022-12-18T02:59:58;45.30;;;11.27;;
72728;SDS011;60843;52.062;4.508;2022-12-18T03:02:32;42.00;;;10.82;;
72728;SDS011;60843;52.062;4.508;2022-12-18T03:05:04;41.75;;;10.82;;
72728;SDS011;60843;52.062;4.508;2022-12-18T03:07:46;22.67;;;8.25;;
72728;SDS011;60843;52.062;4.508;2022-12-18T03:10:16;35.45;;;11.55;;
72728;SDS011;60843;52.062;4.508;2022-12-18T03:12:45;49.47;;;10.77;;
72728;SDS011;60843;52.062;4.508;2022-12-18T03:15:20;33.15;;;11.00;;
72728;SDS011;60843;52.062;4.508;2022-12-18T03:17:52;51.35;;;10.98;;
72728;SDS011;60843;52.062;4.508;2022-12-18T03:20:22;40.05;;;9.13;;
72728;SDS011;60843;52.062;4.508;2022-12-18T03:22:51;38.63;;;11.05;;
72728;SDS011;60843;52.062;4.508;2022-12-18T03:25:18;53.85;;;11.77;;
72728;SDS011;60843;52.062;4.508;2022-12-18T03:27:47;27.25;;;9.10;;
72728;SDS011;60843;52.062;4.508;2022-12-18T03:30:15;27.10;;;11.57;;
72728;SDS011;60843;52.062;4.508;2022-12-18T03:32:48;32.75;;;10.27;;
72728;SDS011;60843;52.062;4.508;2022-12-18T03:35:26;33.97;;;10.07;;
72728;SDS011;60843;52.062;4.508;2022-12-18T03:37:54;45.83;;;12.73;;
72728;SDS011;60843;52.062;4.508;2022-12-18T03:40:20;41.47;;;12.10;;
72728;SDS011;60843;52.062;4.508;2022-12-18T03:42:52;31.67;;;9.82;;
72728;SDS011;60843;52.062;4.508;2022-12-18T03:45:34;34.15;;;11.20;;
72728;SDS011;60843;52.062;4.508;2022-12-18T03:50:59;30.55;;;10.57;;
72728;SDS011;60843;52.062;4.508;2022-12-18T03:56:18;52.80;;;12.20;;
72728;SDS011;60843;52.062;4.508;2022-12-18T03:58:46;38.42;;;11.23;;
72728;SDS011;60843;52.062;4.508;2022-12-18T04:01:13;48.65;;;12.93;;
72728;SDS011;60843;52.062;4.508;2022-12-18T04:03:41;36.42;;;10.52;;
72728;SDS011;60843;52.062;4.508;2022-12-18T04:06:07;45.47;;;12.20;;
72728;SDS011;60843;52.062;4.508;2022-12-18T04:08:33;35.95;;;10.77;;
72728;SDS011;60843;52.062;4.508;2022-12-18T04:11:00;43.22;;;11.32;;
72728;SDS011;60843;52.062;4.508;2022-12-18T04:13:30;39.30;;;11.85;;
72728;SDS011;60843;52.062;4.508;2022-12-18T04:15:58;39.28;;;11.60;;
72728;SDS011;60843;52.062;4.508;2022-12-18T04:18:23;36.67;;;11.43;;
72728;SDS011;60843;52.062;4.508;2022-12-18T04:20:49;38.13;;;10.03;;
72728;SDS011;60843;52.062;4.508;2022-12-18T04:23:14;38.30;;;10.67;;
72728;SDS011;60843;52.062;4.508;2022-12-18T04:25:39;36.17;;;11.03;;
72728;SDS011;60843;52.062;4.508;2022-12-18T04:28:05;39.17;;;11.53;;
72728;SDS011;60843;52.062;4.508;2022-12-18T04:30:30;43.78;;;12.73;;
72728;SDS011;60843;52.062;4.508;2022-12-18T04:32:55;39.27;;;11.73;;
72728;SDS011;60843;52.062;4.508;2022-12-18T04:35:21;33.87;;;10.37;;
72728;SDS011;60843;52.062;4.508;2022-12-18T04:37:46;33.30;;;11.33;;
72728;SDS011;60843;52.062;4.508;2022-12-18T04:40:12;39.57;;;11.27;;
72728;SDS011;60843;52.062;4.508;2022-12-18T04:42:38;31.77;;;11.10;;
72728;SDS011;60843;52.062;4.508;2022-12-18T04:45:05;35.63;;;10.68;;
72728;SDS011;60843;52.062;4.508;2022-12-18T04:47:30;34.15;;;10.82;;
72728;SDS011;60843;52.062;4.508;2022-12-18T04:49:56;31.70;;;10.80;;
72728;SDS011;60843;52.062;4.508;2022-12-18T04:52:21;35.37;;;10.27;;
72728;SDS011;60843;52.062;4.508;2022-12-18T04:54:47;39.80;;;12.83;;
72728;SDS011;60843;52.062;4.508;2022-12-18T04:57:13;37.47;;;11.75;;
72728;SDS011;60843;52.062;4.508;2022-12-18T04:59:38;40.95;;;10.73;;
72728;SDS011;60843;52.062;4.508;2022-12-18T05:02:04;45.73;;;11.57;;
72728;SDS011;60843;52.062;4.508;2022-12-18T05:04:29;43.85;;;11.88;;
72728;SDS011;60843;52.062;4.508;2022-12-18T05:06:54;30.50;;;11.27;;
72728;SDS011;60843;52.062;4.508;2022-12-18T05:09:20;31.58;;;10.73;;
72728;SDS011;60843;52.062;4.508;2022-12-18T05:11:45;37.08;;;11.10;;
72728;SDS011;60843;52.062;4.508;2022-12-18T05:14:11;43.70;;;11.82;;
72728;SDS011;60843;52.062;4.508;2022-12-18T05:16:37;32.97;;;12.23;;
72728;SDS011;60843;52.062;4.508;2022-12-18T05:19:02;35.05;;;11.07;;
72728;SDS011;60843;52.062;4.508;2022-12-18T05:21:28;40.83;;;11.00;;
72728;SDS011;60843;52.062;4.508;2022-12-18T05:23:53;35.10;;;10.53;;
72728;SDS011;60843;52.062;4.508;2022-12-18T05:26:19;33.83;;;11.03;;
72728;SDS011;60843;52.062;4.508;2022-12-18T05:28:44;38.63;;;11.20;;
72728;SDS011;60843;52.062;4.508;2022-12-18T05:31:11;31.42;;;11.02;;
72728;SDS011;60843;52.062;4.508;2022-12-18T05:33:36;35.08;;;11.85;;
72728;SDS011;60843;52.062;4.508;2022-12-18T05:36:03;34.88;;;11.98;;
72728;SDS011;60843;52.062;4.508;2022-12-18T05:38:30;26.80;;;8.70;;
72728;SDS011;60843;52.062;4.508;2022-12-18T05:40:56;31.52;;;10.25;;
72728;SDS011;60843;52.062;4.508;2022-12-18T05:43:22;40.45;;;11.68;;
72728;SDS011;60843;52.062;4.508;2022-12-18T05:45:48;33.35;;;11.63;;
72728;SDS011;60843;52.062;4.508;2022-12-18T05:48:14;39.05;;;12.20;;
72728;SDS011;60843;52.062;4.508;2022-12-18T05:50:41;30.58;;;10.88;;
72728;SDS011;60843;52.062;4.508;2022-12-18T05:53:07;31.23;;;11.63;;
72728;SDS011;60843;52.062;4.508;2022-12-18T05:55:33;37.90;;;11.70;;
72728;SDS011;60843;52.062;4.508;2022-12-18T05:58:03;28.15;;;9.57;;
72728;SDS011;60843;52.062;4.508;2022-12-18T06:00:29;38.78;;;11.30;;
72728;SDS011;60843;52.062;4.508;2022-12-18T06:02:55;33.85;;;11.35;;
72728;SDS011;60843;52.062;4.508;2022-12-18T06:05:20;37.58;;;12.25;;
72728;SDS011;60843;52.062;4.508;2022-12-18T06:07:46;34.13;;;10.60;;
72728;SDS011;60843;52.062;4.508;2022-12-18T06:10:11;38.70;;;12.15;;
72728;SDS011;60843;52.062;4.508;2022-12-18T06:12:37;32.75;;;11.27;;
72728;SDS011;60843;52.062;4.508;2022-12-18T06:15:03;34.50;;;10.18;;
72728;SDS011;60843;52.062;4.508;2022-12-18T06:17:29;34.17;;;10.57;;
72728;SDS011;60843;52.062;4.508;2022-12-18T06:19:55;32.28;;;11.50;;
72728;SDS011;60843;52.062;4.508;2022-12-18T06:22:20;39.50;;;12.70;;
72728;SDS011;60843;52.062;4.508;2022-12-18T06:24:46;36.75;;;12.30;;
72728;SDS011;60843;52.062;4.508;2022-12-18T06:27:11;39.08;;;11.30;;
72728;SDS011;60843;52.062;4.508;2022-12-18T06:29:36;33.73;;;11.00;;
72728;SDS011;60843;52.062;4.508;2022-12-18T06:32:02;38.33;;;12.18;;
72728;SDS011;60843;52.062;4.508;2022-12-18T06:34:27;27.42;;;8.88;;
72728;SDS011;60843;52.062;4.508;2022-12-18T06:36:53;26.40;;;9.60;;
72728;SDS011;60843;52.062;4.508;2022-12-18T06:39:18;31.93;;;10.80;;
72728;SDS011;60843;52.062;4.508;2022-12-18T06:41:43;36.27;;;12.17;;
72728;SDS011;60843;52.062;4.508;2022-12-18T06:44:09;38.13;;;11.38;;
72728;SDS011;60843;52.062;4.508;2022-12-18T06:46:35;25.60;;;9.37;;
72728;SDS011;60843;52.062;4.508;2022-12-18T06:49:00;33.70;;;9.63;;
72728;SDS011;60843;52.062;4.508;2022-12-18T06:51:25;21.95;;;9.93;;
72728;SDS011;60843;52.062;4.508;2022-12-18T06:53:51;25.15;;;10.20;;
72728;SDS011;60843;52.062;4.508;2022-12-18T06:56:16;21.45;;;9.30;;
72728;SDS011;60843;52.062;4.508;2022-12-18T06:58:41;28.73;;;9.77;;
72728;SDS011;60843;52.062;4.508;2022-12-18T07:01:08;26.98;;;9.18;;
72728;SDS011;60843;52.062;4.508;2022-12-18T07:03:35;23.10;;;8.18;;
72728;SDS011;60843;52.062;4.508;2022-12-18T07:06:01;26.77;;;9.43;;
72728;SDS011;60843;52.062;4.508;2022-12-18T07:08:26;29.73;;;10.10;;
72728;SDS011;60843;52.062;4.508;2022-12-18T07:10:51;24.63;;;8.53;;
72728;SDS011;60843;52.062;4.508;2022-12-18T07:13:18;23.50;;;7.88;;
72728;SDS011;60843;52.062;4.508;2022-12-18T07:15:44;23.67;;;9.93;;
72728;SDS011;60843;52.062;4.508;2022-12-18T07:18:09;28.85;;;8.30;;
72728;SDS011;60843;52.062;4.508;2022-12-18T07:20:35;17.83;;;6.07;;
72728;SDS011;60843;52.062;4.508;2022-12-18T07:23:03;22.50;;;9.02;;
72728;SDS011;60843;52.062;4.508;2022-12-18T07:25:30;31.70;;;10.75;;
72728;SDS011;60843;52.062;4.508;2022-12-18T07:27:58;11.35;;;4.68;;
72728;SDS011;60843;52.062;4.508;2022-12-18T07:30:23;19.33;;;6.43;;
72728;SDS011;60843;52.062;4.508;2022-12-18T07:32:49;17.27;;;8.00;;
72728;SDS011;60843;52.062;4.508;2022-12-18T07:35:14;18.30;;;7.63;;
72728;SDS011;60843;52.062;4.508;2022-12-18T07:37:40;26.77;;;9.50;;
72728;SDS011;60843;52.062;4.508;2022-12-18T07:40:05;21.43;;;9.17;;
72728;SDS011;60843;52.062;4.508;2022-12-18T07:42:31;20.55;;;8.02;;
72728;SDS011;60843;52.062;4.508;2022-12-18T07:44:57;16.60;;;7.53;;
72728;SDS011;60843;52.062;4.508;2022-12-18T07:47:23;18.30;;;8.02;;
72728;SDS011;60843;52.062;4.508;2022-12-18T07:49:48;22.80;;;8.10;;
72728;SDS011;60843;52.062;4.508;2022-12-18T07:52:14;14.55;;;6.03;;
72728;SDS011;60843;52.062;4.508;2022-12-18T07:54:39;22.42;;;8.80;;
72728;SDS011;60843;52.062;4.508;2022-12-18T07:57:05;31.30;;;8.15;;
72728;SDS011;60843;52.062;4.508;2022-12-18T07:59:31;25.67;;;8.85;;
72728;SDS011;60843;52.062;4.508;2022-12-18T08:01:56;16.00;;;7.13;;
72728;SDS011;60843;52.062;4.508;2022-12-18T08:04:22;25.77;;;8.85;;
72728;SDS011;60843;52.062;4.508;2022-12-18T08:06:47;23.60;;;8.77;;
72728;SDS011;60843;52.062;4.508;2022-12-18T08:09:12;21.67;;;8.20;;
72728;SDS011;60843;52.062;4.508;2022-12-18T08:11:38;23.83;;;8.50;;
72728;SDS011;60843;52.062;4.508;2022-12-18T08:14:03;24.88;;;8.98;;
72728;SDS011;60843;52.062;4.508;2022-12-18T08:16:29;25.38;;;7.78;;
72728;SDS011;60843;52.062;4.508;2022-12-18T08:18:55;24.92;;;10.15;;
72728;SDS011;60843;52.062;4.508;2022-12-18T08:21:23;24.35;;;8.55;;
72728;SDS011;60843;52.062;4.508;2022-12-18T08:23:50;16.40;;;6.20;;
72728;SDS011;60843;52.062;4.508;2022-12-18T08:26:16;26.50;;;9.32;;
72728;SDS011;60843;52.062;4.508;2022-12-18T08:28:41;25.42;;;9.55;;
72728;SDS011;60843;52.062;4.508;2022-12-18T08:31:07;15.18;;;5.85;;
72728;SDS011;60843;52.062;4.508;2022-12-18T08:33:33;18.38;;;8.10;;
72728;SDS011;60843;52.062;4.508;2022-12-18T08:36:00;25.60;;;8.25;;
72728;SDS011;60843;52.062;4.508;2022-12-18T08:38:25;24.92;;;8.90;;
72728;SDS011;60843;52.062;4.508;2022-12-18T08:41:01;20.08;;;7.70;;
72728;SDS011;60843;52.062;4.508;2022-12-18T08:43:28;19.70;;;7.65;;
72728;SDS011;60843;52.062;4.508;2022-12-18T08:46:11;17.80;;;6.90;;
72728;SDS011;60843;52.062;4.508;2022-12-18T08:48:37;19.45;;;8.35;;
72728;SDS011;60843;52.062;4.508;2022-12-18T08:51:02;17.33;;;7.77;;
72728;SDS011;60843;52.062;4.508;2022-12-18T08:53:28;10.93;;;5.15;;
72728;SDS011;60843;52.062;4.508;2022-12-18T08:55:53;14.25;;;6.65;;
72728;SDS011;60843;52.062;4.508;2022-12-18T08:58:21;18.88;;;6.60;;
72728;SDS011;60843;52.062;4.508;2022-12-18T09:00:46;18.10;;;6.90;;
72728;SDS011;60843;52.062;4.508;2022-12-18T09:03:15;23.43;;;8.00;;
72728;SDS011;60843;52.062;4.508;2022-12-18T09:05:47;22.75;;;9.02;;
72728;SDS011;60843;52.062;4.508;2022-12-18T09:08:13;21.63;;;7.28;;
72728;SDS011;60843;52.062;4.508;2022-12-18T09:10:42;20.63;;;8.27;;
72728;SDS011;60843;52.062;4.508;2022-12-18T09:13:09;24.73;;;8.32;;
72728;SDS011;60843;52.062;4.508;2022-12-18T09:15:39;16.42;;;6.05;;
72728;SDS011;60843;52.062;4.508;2022-12-18T09:18:05;11.13;;;5.13;;
72728;SDS011;60843;52.062;4.508;2022-12-18T09:20:31;10.97;;;5.87;;
72728;SDS011;60843;52.062;4.508;2022-12-18T09:22:56;15.57;;;6.73;;
72728;SDS011;60843;52.062;4.508;2022-12-18T09:25:21;19.43;;;8.70;;
72728;SDS011;60843;52.062;4.508;2022-12-18T09:27:47;16.30;;;7.90;;
72728;SDS011;60843;52.062;4.508;2022-12-18T09:30:12;11.68;;;5.68;;
72728;SDS011;60843;52.062;4.508;2022-12-18T09:32:38;21.08;;;7.57;;
72728;SDS011;60843;52.062;4.508;2022-12-18T09:35:03;19.13;;;6.50;;
72728;SDS011;60843;52.062;4.508;2022-12-18T09:37:29;19.40;;;8.18;;
72728;SDS011;60843;52.062;4.508;2022-12-18T09:39:54;17.33;;;7.20;;
72728;SDS011;60843;52.062;4.508;2022-12-18T09:42:20;29.77;;;7.73;;
72728;SDS011;60843;52.062;4.508;2022-12-18T09:44:50;23.73;;;8.27;;
72728;SDS011;60843;52.062;4.508;2022-12-18T09:47:34;18.45;;;8.45;;
72728;SDS011;60843;52.062;4.508;2022-12-18T09:50:02;21.65;;;7.78;;
72728;SDS011;60843;52.062;4.508;2022-12-18T09:52:31;18.30;;;7.93;;
72728;SDS011;60843;52.062;4.508;2022-12-18T09:57:33;12.35;;;6.15;;
72728;SDS011;60843;52.062;4.508;2022-12-18T10:00:20;19.58;;;7.03;;
72728;SDS011;60843;52.062;4.508;2022-12-18T10:02:47;15.65;;;7.10;;
72728;SDS011;60843;52.062;4.508;2022-12-18T10:05:14;21.33;;;8.35;;
72728;SDS011;60843;52.062;4.508;2022-12-18T10:10:41;17.25;;;7.10;;
72728;SDS011;60843;52.062;4.508;2022-12-18T10:18:39;20.77;;;8.30;;
72728;SDS011;60843;52.062;4.508;2022-12-18T10:21:13;18.33;;;6.72;;
72728;SDS011;60843;52.062;4.508;2022-12-18T10:26:24;19.83;;;7.90;;
72728;SDS011;60843;52.062;4.508;2022-12-18T10:28:49;16.10;;;6.90;;
72728;SDS011;60843;52.062;4.508;2022-12-18T10:31:17;19.30;;;8.38;;
72728;SDS011;60843;52.062;4.508;2022-12-18T10:33:44;18.70;;;7.40;;
72728;SDS011;60843;52.062;4.508;2022-12-18T10:36:10;21.08;;;8.35;;
72728;SDS011;60843;52.062;4.508;2022-12-18T10:38:36;18.20;;;7.82;;
72728;SDS011;60843;52.062;4.508;2022-12-18T10:41:44;20.50;;;8.55;;
72728;SDS011;60843;52.062;4.508;2022-12-18T10:46:46;10.02;;;5.03;;
72728;SDS011;60843;52.062;4.508;2022-12-18T10:49:24;21.10;;;8.60;;
72728;SDS011;60843;52.062;4.508;2022-12-18T10:52:03;16.88;;;8.38;;
72728;SDS011;60843;52.062;4.508;2022-12-18T10:54:37;18.30;;;8.45;;
72728;SDS011;60843;52.062;4.508;2022-12-18T10:57:17;18.52;;;8.00;;
72728;SDS011;60843;52.062;4.508;2022-12-18T10:59:55;20.45;;;8.40;;
72728;SDS011;60843;52.062;4.508;2022-12-18T11:02:28;16.27;;;7.05;;
72728;SDS011;60843;52.062;4.508;2022-12-18T11:05:00;18.80;;;9.07;;
72728;SDS011;60843;52.062;4.508;2022-12-18T11:07:33;14.43;;;7.22;;
72728;SDS011;60843;52.062;4.508;2022-12-18T11:10:15;13.70;;;6.57;;
72728;SDS011;60843;52.062;4.508;2022-12-18T11:12:42;21.60;;;8.80;;
72728;SDS011;60843;52.062;4.508;2022-12-18T11:15:14;19.13;;;8.27;;
72728;SDS011;60843;52.062;4.508;2022-12-18T11:17:40;19.70;;;7.38;;
72728;SDS011;60843;52.062;4.508;2022-12-18T11:20:18;18.33;;;8.10;;
72728;SDS011;60843;52.062;4.508;2022-12-18T11:23:04;20.13;;;8.85;;
72728;SDS011;60843;52.062;4.508;2022-12-18T11:25:31;20.08;;;8.35;;
72728;SDS011;60843;52.062;4.508;2022-12-18T11:27:59;21.92;;;8.65;;
72728;SDS011;60843;52.062;4.508;2022-12-18T11:35:50;23.50;;;9.57;;
72728;SDS011;60843;52.062;4.508;2022-12-18T11:46:17;19.63;;;7.75;;
72728;SDS011;60843;52.062;4.508;2022-12-18T11:48:45;15.38;;;7.43;;
72728;SDS011;60843;52.062;4.508;2022-12-18T11:51:16;10.82;;;5.63;;
72728;SDS011;60843;52.062;4.508;2022-12-18T11:53:48;19.08;;;7.38;;
72728;SDS011;60843;52.062;4.508;2022-12-18T12:06:47;19.58;;;8.77;;
72728;SDS011;60843;52.062;4.508;2022-12-18T12:09:18;11.50;;;5.45;;
72728;SDS011;60843;52.062;4.508;2022-12-18T12:12:01;19.77;;;6.15;;
72728;SDS011;60843;52.062;4.508;2022-12-18T12:14:59;20.05;;;8.75;;
72728;SDS011;60843;52.062;4.508;2022-12-18T12:17:42;18.65;;;8.32;;
72728;SDS011;60843;52.062;4.508;2022-12-18T12:20:20;16.90;;;8.23;;
72728;SDS011;60843;52.062;4.508;2022-12-18T12:23:03;18.02;;;8.30;;
72728;SDS011;60843;52.062;4.508;2022-12-18T12:25:50;20.15;;;8.88;;
72728;SDS011;60843;52.062;4.508;2022-12-18T12:39:23;13.63;;;6.75;;
72728;SDS011;60843;52.062;4.508;2022-12-18T12:41:53;17.48;;;7.53;;
72728;SDS011;60843;52.062;4.508;2022-12-18T12:44:39;13.95;;;6.03;;
72728;SDS011;60843;52.062;4.508;2022-12-18T12:47:15;19.48;;;9.75;;
72728;SDS011;60843;52.062;4.508;2022-12-18T12:49:43;23.85;;;9.65;;
72728;SDS011;60843;52.062;4.508;2022-12-18T12:52:14;21.17;;;8.27;;
72728;SDS011;60843;52.062;4.508;2022-12-18T12:54:41;17.83;;;7.22;;
72728;SDS011;60843;52.062;4.508;2022-12-18T13:08:07;17.15;;;8.88;;
72728;SDS011;60843;52.062;4.508;2022-12-18T13:10:41;19.40;;;8.43;;
72728;SDS011;60843;52.062;4.508;2022-12-18T13:13:10;23.92;;;9.60;;
72728;SDS011;60843;52.062;4.508;2022-12-18T13:18:29;16.70;;;8.20;;
72728;SDS011;60843;52.062;4.508;2022-12-18T13:34:18;16.58;;;7.53;;
72728;SDS011;60843;52.062;4.508;2022-12-18T13:36:45;19.63;;;9.60;;
72728;SDS011;60843;52.062;4.508;2022-12-18T13:41:37;20.73;;;8.80;;
72728;SDS011;60843;52.062;4.508;2022-12-18T13:47:05;15.40;;;7.88;;
72728;SDS011;60843;52.062;4.508;2022-12-18T13:49:51;17.55;;;8.13;;
72728;SDS011;60843;52.062;4.508;2022-12-18T13:54:42;14.73;;;6.22;;
72728;SDS011;60843;52.062;4.508;2022-12-18T13:59:58;16.63;;;7.63;;
72728;SDS011;60843;52.062;4.508;2022-12-18T14:02:25;16.33;;;7.65;;
72728;SDS011;60843;52.062;4.508;2022-12-18T14:04:52;17.42;;;8.40;;
72728;SDS011;60843;52.062;4.508;2022-12-18T14:10:33;22.92;;;10.07;;
72728;SDS011;60843;52.062;4.508;2022-12-18T14:12:40;16.23;;;7.75;;
72728;SDS011;60843;52.062;4.508;2022-12-18T14:21:00;11.20;;;4.90;;
72728;SDS011;60843;52.062;4.508;2022-12-18T14:25:56;17.75;;;8.40;;
72728;SDS011;60843;52.062;4.508;2022-12-18T14:28:22;19.13;;;8.60;;
72728;SDS011;60843;52.062;4.508;2022-12-18T14:30:48;15.65;;;7.07;;
72728;SDS011;60843;52.062;4.508;2022-12-18T14:33:19;16.10;;;7.43;;
72728;SDS011;60843;52.062;4.508;2022-12-18T14:35:59;15.07;;;7.50;;
72728;SDS011;60843;52.062;4.508;2022-12-18T14:38:27;20.13;;;8.88;;
72728;SDS011;60843;52.062;4.508;2022-12-18T14:40:58;18.42;;;8.00;;
72728;SDS011;60843;52.062;4.508;2022-12-18T14:43:42;20.65;;;8.90;;
72728;SDS011;60843;52.062;4.508;2022-12-18T14:51:47;17.95;;;8.52;;
72728;SDS011;60843;52.062;4.508;2022-12-18T14:54:17;15.90;;;8.52;;
72728;SDS011;60843;52.062;4.508;2022-12-18T14:56:45;16.95;;;8.15;;
72728;SDS011;60843;52.062;4.508;2022-12-18T14:59:13;19.85;;;9.10;;
72728;SDS011;60843;52.062;4.508;2022-12-18T15:01:48;18.70;;;9.00;;
72728;SDS011;60843;52.062;4.508;2022-12-18T15:04:23;17.92;;;7.22;;
72728;SDS011;60843;52.062;4.508;2022-12-18T15:07:02;15.13;;;7.28;;
72728;SDS011;60843;52.062;4.508;2022-12-18T15:09:28;17.65;;;8.27;;
72728;SDS011;60843;52.062;4.508;2022-12-18T15:12:00;16.45;;;8.07;;
72728;SDS011;60843;52.062;4.508;2022-12-18T15:17:25;25.25;;;9.48;;
72728;SDS011;60843;52.062;4.508;2022-12-18T15:19:51;22.98;;;9.60;;
72728;SDS011;60843;52.062;4.508;2022-12-18T15:22:20;15.00;;;7.00;;
72728;SDS011;60843;52.062;4.508;2022-12-18T15:24:53;25.98;;;10.65;;
72728;SDS011;60843;52.062;4.508;2022-12-18T15:27:29;18.63;;;8.75;;
72728;SDS011;60843;52.062;4.508;2022-12-18T15:32:35;22.42;;;10.13;;
72728;SDS011;60843;52.062;4.508;2022-12-18T15:35:09;20.52;;;9.35;;
72728;SDS011;60843;52.062;4.508;2022-12-18T15:37:46;18.80;;;7.97;;
72728;SDS011;60843;52.062;4.508;2022-12-18T15:40:30;23.98;;;10.18;;
72728;SDS011;60843;52.062;4.508;2022-12-18T15:42:55;19.25;;;8.65;;
72728;SDS011;60843;52.062;4.508;2022-12-18T15:45:39;26.10;;;9.23;;
72728;SDS011;60843;52.062;4.508;2022-12-18T15:48:17;15.57;;;8.60;;
72728;SDS011;60843;52.062;4.508;2022-12-18T15:50:45;17.88;;;8.77;;
72728;SDS011;60843;52.062;4.508;2022-12-18T15:53:10;13.00;;;7.53;;
72728;SDS011;60843;52.062;4.508;2022-12-18T15:55:36;22.08;;;8.05;;
72728;SDS011;60843;52.062;4.508;2022-12-18T15:58:21;12.27;;;6.68;;
72728;SDS011;60843;52.062;4.508;2022-12-18T16:00:46;21.83;;;9.43;;
72728;SDS011;60843;52.062;4.508;2022-12-18T16:03:12;25.50;;;10.45;;
72728;SDS011;60843;52.062;4.508;2022-12-18T16:05:37;20.15;;;8.40;;
72728;SDS011;60843;52.062;4.508;2022-12-18T16:08:03;20.08;;;9.05;;
72728;SDS011;60843;52.062;4.508;2022-12-18T16:10:29;21.92;;;9.30;;
72728;SDS011;60843;52.062;4.508;2022-12-18T16:12:54;24.08;;;9.57;;
72728;SDS011;60843;52.062;4.508;2022-12-18T16:15:20;15.55;;;7.38;;
72728;SDS011;60843;52.062;4.508;2022-12-18T16:17:46;22.02;;;9.82;;
72728;SDS011;60843;52.062;4.508;2022-12-18T16:20:15;17.00;;;7.95;;
72728;SDS011;60843;52.062;4.508;2022-12-18T16:22:42;21.23;;;9.35;;
72728;SDS011;60843;52.062;4.508;2022-12-18T16:25:21;22.67;;;9.05;;
72728;SDS011;60843;52.062;4.508;2022-12-18T16:27:48;23.02;;;10.43;;
72728;SDS011;60843;52.062;4.508;2022-12-18T16:30:14;21.60;;;9.40;;
72728;SDS011;60843;52.062;4.508;2022-12-18T16:32:45;19.00;;;8.95;;
72728;SDS011;60843;52.062;4.508;2022-12-18T16:35:11;17.88;;;9.07;;
72728;SDS011;60843;52.062;4.508;2022-12-18T16:37:38;19.65;;;9.05;;
72728;SDS011;60843;52.062;4.508;2022-12-18T16:40:08;21.08;;;9.32;;
72728;SDS011;60843;52.062;4.508;2022-12-18T16:42:36;16.38;;;7.70;;
72728;SDS011;60843;52.062;4.508;2022-12-18T16:45:02;25.67;;;10.50;;
72728;SDS011;60843;52.062;4.508;2022-12-18T16:47:28;23.02;;;9.48;;
72728;SDS011;60843;52.062;4.508;2022-12-18T16:49:53;22.00;;;9.65;;
72728;SDS011;60843;52.062;4.508;2022-12-18T16:52:19;20.70;;;8.57;;
72728;SDS011;60843;52.062;4.508;2022-12-18T16:54:45;14.45;;;7.47;;
72728;SDS011;60843;52.062;4.508;2022-12-18T16:57:15;20.20;;;9.02;;
72728;SDS011;60843;52.062;4.508;2022-12-18T16:59:41;18.95;;;8.63;;
72728;SDS011;60843;52.062;4.508;2022-12-18T17:02:12;16.10;;;7.97;;